createdAt,value
2023-01-19T00:00:30.099Z,17.73
2023-01-19T00:02:56.744Z,17.52
2023-01-19T00:05:23.298Z,13.93
2023-01-19T00:10:34.169Z,15.82
2023-01-19T00:13:01.144Z,14.35
2023-01-19T00:15:29.184Z,14.60
2023-01-19T00:17:55.779Z,16.15
2023-01-19T00:20:22.354Z,15.35
2023-01-19T00:22:51.005Z,13.90
2023-01-19T00:25:17.764Z,14.52
2023-01-19T00:27:49.374Z,13.77
2023-01-19T00:30:16.486Z,17.02
2023-01-19T00:32:43.052Z,14.90
2023-01-19T00:35:09.660Z,13.73
2023-01-19T00:37:36.192Z,15.68
2023-01-19T00:40:02.781Z,15.02
2023-01-19T00:42:41.069Z,13.93
2023-01-19T00:45:10.068Z,16.40
2023-01-19T00:47:36.739Z,17.52
2023-01-19T00:50:03.557Z,13.73
2023-01-19T00:52:30.137Z,17.00
2023-01-19T00:54:56.693Z,14.40
2023-01-19T00:57:23.575Z,20.13
2023-01-19T00:59:50.326Z,15.15
2023-01-19T01:02:17.260Z,17.45
2023-01-19T01:04:43.922Z,14.07
2023-01-19T01:07:10.600Z,18.30
2023-01-19T01:09:38.170Z,12.95
2023-01-19T01:12:05.872Z,14.68
2023-01-19T01:14:32.859Z,16.85
2023-01-19T01:17:00.677Z,17.48
2023-01-19T01:19:27.468Z,17.38
2023-01-19T01:21:54.164Z,15.23
2023-01-19T01:24:20.843Z,17.33
2023-01-19T01:26:47.509Z,19.83
2023-01-19T01:29:14.108Z,18.00
2023-01-19T01:31:41.010Z,18.30
2023-01-19T01:34:08.277Z,16.38
2023-01-19T01:36:35.591Z,16.75
2023-01-19T01:39:02.506Z,15.80
2023-01-19T01:41:29.143Z,16.58
2023-01-19T01:44:02.055Z,14.98
2023-01-19T01:46:31.171Z,14.25
2023-01-19T01:49:08.645Z,19.92
2023-01-19T01:51:42.297Z,15.73
2023-01-19T01:54:19.000Z,17.73
2023-01-19T01:56:49.321Z,13.40
2023-01-19T01:59:29.604Z,17.10
2023-01-19T02:02:18.192Z,12.52
2023-01-19T02:04:56.157Z,17.70
2023-01-19T02:07:52.107Z,15.65
2023-01-19T02:10:37.482Z,16.80
2023-01-19T02:13:22.568Z,15.23
2023-01-19T02:15:52.679Z,13.35
2023-01-19T02:18:24.460Z,16.70
2023-01-19T02:21:00.336Z,15.38
2023-01-19T02:23:55.331Z,15.95
2023-01-19T02:26:36.416Z,15.52
2023-01-19T02:29:08.752Z,15.90
2023-01-19T02:31:39.045Z,15.32
2023-01-19T02:34:08.445Z,13.75
2023-01-19T02:36:39.915Z,16.80
2023-01-19T02:39:09.750Z,17.02
2023-01-19T02:41:42.725Z,12.85
2023-01-19T02:44:11.085Z,18.25
2023-01-19T02:46:38.548Z,15.32
2023-01-19T02:49:05.250Z,17.67
2023-01-19T02:51:32.300Z,16.08
2023-01-19T02:54:04.687Z,17.40
2023-01-19T02:56:34.848Z,15.15
2023-01-19T02:59:25.855Z,17.85
2023-01-19T03:02:08.968Z,13.68
2023-01-19T03:04:57.515Z,15.90
2023-01-19T03:08:01.445Z,16.50
2023-01-19T03:10:31.033Z,14.88
2023-01-19T03:13:13.816Z,14.85
2023-01-19T03:16:23.785Z,15.77
2023-01-19T03:19:08.874Z,17.17
2023-01-19T03:21:39.305Z,18.33
2023-01-19T03:24:08.524Z,16.23
2023-01-19T03:26:43.124Z,16.52
2023-01-19T03:29:13.613Z,19.08
2023-01-19T03:31:43.390Z,18.70
2023-01-19T03:34:13.703Z,16.10
2023-01-19T03:36:51.652Z,22.73
2023-01-19T03:39:22.692Z,16.05
2023-01-19T03:41:53.854Z,17.40
2023-01-19T03:44:20.439Z,16.20
2023-01-19T03:46:48.111Z,16.80
2023-01-19T03:49:14.813Z,14.35
2023-01-19T03:51:41.524Z,14.65
2023-01-19T03:54:10.355Z,19.58
2023-01-19T03:56:37.285Z,14.88
2023-01-19T03:59:05.674Z,14.57
2023-01-19T04:01:32.787Z,13.95
2023-01-19T04:03:59.431Z,13.88
2023-01-19T04:06:27.083Z,15.55
2023-01-19T04:08:53.945Z,17.73
2023-01-19T04:11:20.881Z,15.30
2023-01-19T04:13:47.941Z,18.55
2023-01-19T04:16:19.898Z,18.63
2023-01-19T04:18:47.415Z,17.40
2023-01-19T04:21:14.573Z,17.75
2023-01-19T04:23:41.168Z,16.33
2023-01-19T04:26:09.222Z,15.27
2023-01-19T04:28:37.254Z,21.33
2023-01-19T04:31:07.895Z,17.40
2023-01-19T04:33:35.099Z,14.77
2023-01-19T04:36:02.260Z,16.08
2023-01-19T04:38:28.851Z,15.10
2023-01-19T04:40:55.475Z,16.60
2023-01-19T04:43:23.361Z,17.80
2023-01-19T04:45:50.882Z,18.65
2023-01-19T04:48:18.594Z,18.92
2023-01-19T04:50:45.281Z,18.95
2023-01-19T04:53:13.865Z,17.75
2023-01-19T04:55:40.739Z,20.23
2023-01-19T04:58:07.359Z,19.88
2023-01-19T05:00:34.114Z,18.58
2023-01-19T05:03:01.610Z,18.20
2023-01-19T05:05:28.688Z,24.05
2023-01-19T05:07:55.570Z,17.48
2023-01-19T05:10:22.311Z,18.80
2023-01-19T05:12:48.933Z,17.95
2023-01-19T05:15:15.508Z,21.17
2023-01-19T05:17:42.066Z,17.70
2023-01-19T05:20:12.533Z,24.45
2023-01-19T05:22:40.005Z,17.88
2023-01-19T05:25:08.816Z,20.38
2023-01-19T05:27:36.643Z,20.90
2023-01-19T05:30:05.096Z,18.67
2023-01-19T05:32:31.660Z,20.63
2023-01-19T05:34:58.309Z,22.33
2023-01-19T05:37:25.049Z,17.30
2023-01-19T05:39:51.861Z,19.15
2023-01-19T05:42:18.401Z,20.88
2023-01-19T05:44:44.972Z,22.17
2023-01-19T05:47:11.824Z,19.17
2023-01-19T05:49:38.414Z,25.73
2023-01-19T05:52:04.995Z,21.08
2023-01-19T05:54:31.583Z,19.58
2023-01-19T05:56:58.324Z,15.45
2023-01-19T05:59:24.995Z,15.23
2023-01-19T06:01:52.489Z,13.73
2023-01-19T06:04:20.166Z,13.23
2023-01-19T06:06:50.388Z,16.85
2023-01-19T06:09:17.794Z,22.67
2023-01-19T06:11:45.309Z,17.25
2023-01-19T06:14:12.230Z,16.83
2023-01-19T06:16:39.106Z,23.25
2023-01-19T06:19:06.096Z,19.58
2023-01-19T06:21:34.364Z,19.83
2023-01-19T06:24:01.085Z,21.15
2023-01-19T06:26:27.693Z,20.40
2023-01-19T06:28:55.239Z,22.02
2023-01-19T06:31:22.016Z,18.40
2023-01-19T06:33:48.700Z,18.83
2023-01-19T06:36:15.306Z,20.00
2023-01-19T06:38:41.998Z,18.45
2023-01-19T06:41:08.603Z,19.48
2023-01-19T06:43:35.314Z,19.25
2023-01-19T06:46:02.307Z,21.00
2023-01-19T06:48:28.928Z,21.95
2023-01-19T06:50:57.806Z,23.10
2023-01-19T06:53:27.926Z,21.08
2023-01-19T06:55:59.296Z,16.25
2023-01-19T06:58:26.143Z,16.85
2023-01-19T07:00:52.935Z,22.90
2023-01-19T07:03:22.111Z,18.73
2023-01-19T07:05:56.853Z,20.23
2023-01-19T07:08:24.206Z,17.10
2023-01-19T07:11:25.492Z,17.88
2023-01-19T07:13:38.576Z,18.10
2023-01-19T07:16:08.320Z,17.67
2023-01-19T07:18:35.713Z,16.48
2023-01-19T07:21:02.425Z,16.08
2023-01-19T07:23:31.820Z,17.23
2023-01-19T07:26:00.953Z,19.20
2023-01-19T07:28:31.711Z,13.73
2023-01-19T07:30:58.517Z,17.90
2023-01-19T07:33:26.245Z,15.98
2023-01-19T07:35:53.565Z,15.60
2023-01-19T07:38:20.656Z,14.40
2023-01-19T07:40:47.406Z,15.35
2023-01-19T07:43:14.651Z,19.90
2023-01-19T07:45:41.341Z,19.63
2023-01-19T07:48:07.943Z,16.55
2023-01-19T07:50:34.601Z,17.60
2023-01-19T07:53:08.870Z,17.48
2023-01-19T07:55:35.850Z,19.02
2023-01-19T07:58:06.515Z,17.98
2023-01-19T08:00:34.407Z,17.48
2023-01-19T08:03:03.375Z,14.23
2023-01-19T08:05:30.553Z,17.95
2023-01-19T08:07:58.168Z,15.55
2023-01-19T08:10:26.813Z,15.20
2023-01-19T08:14:02.148Z,15.27
2023-01-19T08:16:29.003Z,15.60
2023-01-19T08:18:55.560Z,13.65
2023-01-19T08:21:22.241Z,17.15
2023-01-19T08:23:55.931Z,14.50
2023-01-19T08:26:29.670Z,14.85
2023-01-19T08:28:59.058Z,15.23
2023-01-19T08:31:26.458Z,16.42
2023-01-19T08:33:53.209Z,14.98
2023-01-19T08:36:21.385Z,15.27
2023-01-19T08:38:48.573Z,14.85
2023-01-19T08:41:17.079Z,15.13
2023-01-19T08:43:45.496Z,16.33
2023-01-19T08:46:12.701Z,15.93
2023-01-19T08:48:40.075Z,20.63
2023-01-19T08:51:06.798Z,19.25
2023-01-19T08:53:34.186Z,15.35
2023-01-19T08:56:02.072Z,16.10
2023-01-19T08:58:29.139Z,17.90
2023-01-19T09:00:56.313Z,20.13
2023-01-19T09:03:23.190Z,20.50
2023-01-19T09:05:50.441Z,18.48
2023-01-19T09:08:17.457Z,20.10
2023-01-19T09:10:47.007Z,18.90
2023-01-19T09:13:14.516Z,19.08
2023-01-19T09:15:43.287Z,19.17
2023-01-19T09:18:16.692Z,18.52
2023-01-19T09:20:45.357Z,15.82
2023-01-19T09:23:13.863Z,22.73
2023-01-19T09:25:42.011Z,19.52
2023-01-19T09:28:10.938Z,15.50
2023-01-19T09:30:39.447Z,17.48
2023-01-19T09:33:08.149Z,18.10
2023-01-19T09:35:35.202Z,16.85
2023-01-19T09:38:02.152Z,20.63
2023-01-19T09:40:29.335Z,17.27
2023-01-19T09:43:11.868Z,17.60
2023-01-19T09:45:48.178Z,15.40
2023-01-19T09:48:52.369Z,16.65
2023-01-19T09:51:23.290Z,18.65
2023-01-19T09:53:56.481Z,15.80
2023-01-19T09:56:24.166Z,14.63
2023-01-19T09:58:51.638Z,14.20
2023-01-19T10:01:52.630Z,12.00
2023-01-19T10:04:32.073Z,11.75
2023-01-19T10:07:23.513Z,10.95
2023-01-19T10:09:59.045Z,15.13
2023-01-19T10:12:37.860Z,11.75
2023-01-19T10:15:16.527Z,16.17
2023-01-19T10:18:17.646Z,10.30
2023-01-19T10:20:50.127Z,27.65
2023-01-19T10:23:37.266Z,10.48
2023-01-19T10:26:12.825Z,10.07
2023-01-19T10:28:40.803Z,14.75
2023-01-19T10:31:09.877Z,15.18
2023-01-19T10:33:37.099Z,28.73
2023-01-19T10:36:17.491Z,8.88
2023-01-19T10:38:44.358Z,11.20
2023-01-19T10:41:39.398Z,12.80
2023-01-19T10:44:07.585Z,9.55
2023-01-19T10:46:37.396Z,7.72
2023-01-19T10:49:04.952Z,8.45
2023-01-19T10:51:31.596Z,11.02
2023-01-19T10:54:01.908Z,9.45
2023-01-19T10:56:35.533Z,7.45
2023-01-19T10:59:05.168Z,14.35
2023-01-19T11:01:36.014Z,13.27
2023-01-19T11:04:21.803Z,6.90
2023-01-19T11:06:48.405Z,10.10
2023-01-19T11:09:20.985Z,11.30
2023-01-19T11:11:52.926Z,10.38
2023-01-19T11:16:58.137Z,9.40
2023-01-19T11:19:32.458Z,11.25
2023-01-19T11:22:16.763Z,10.38
2023-01-19T11:24:44.230Z,11.23
2023-01-19T11:27:10.830Z,11.18
2023-01-19T11:29:38.983Z,14.40
2023-01-19T11:32:22.070Z,10.25
2023-01-19T11:34:49.585Z,9.82
2023-01-19T11:37:16.107Z,11.88
2023-01-19T11:39:49.327Z,7.35
2023-01-19T11:42:17.577Z,10.60
2023-01-19T11:45:23.309Z,9.27
2023-01-19T11:47:51.809Z,9.20
2023-01-19T11:50:29.744Z,6.80
2023-01-19T11:53:24.258Z,7.30
2023-01-19T11:56:02.932Z,9.13
2023-01-19T11:58:31.534Z,8.30
2023-01-19T12:01:01.835Z,8.13
2023-01-19T12:03:54.599Z,10.02
2023-01-19T12:06:47.841Z,9.60
2023-01-19T12:09:22.494Z,9.10
2023-01-19T12:12:05.092Z,8.43
2023-01-19T12:14:35.137Z,11.40
2023-01-19T12:17:05.785Z,8.52
2023-01-19T12:19:55.027Z,9.48
2023-01-19T12:22:24.025Z,10.23
2023-01-19T12:25:02.988Z,9.60
2023-01-19T12:27:44.363Z,8.13
2023-01-19T12:30:23.789Z,8.88
2023-01-19T12:32:53.857Z,9.40
2023-01-19T12:35:54.699Z,11.40
2023-01-19T12:38:30.075Z,6.72
2023-01-19T12:41:16.665Z,10.70
2023-01-19T12:43:43.426Z,9.40
2023-01-19T12:46:31.053Z,9.23
2023-01-19T12:49:19.741Z,12.13
2023-01-19T12:51:46.884Z,17.52
2023-01-19T12:54:32.698Z,14.55
2023-01-19T12:57:06.410Z,9.38
2023-01-19T12:59:35.418Z,16.98
2023-01-19T13:02:20.026Z,10.90
2023-01-19T13:05:28.535Z,8.35
2023-01-19T13:08:08.386Z,10.43
2023-01-19T13:10:59.372Z,11.60
2023-01-19T13:13:29.050Z,5.93
2023-01-19T13:15:57.956Z,11.68
2023-01-19T13:18:27.611Z,10.27
2023-01-19T13:21:12.567Z,12.13
2023-01-19T13:23:51.136Z,11.70
2023-01-19T13:26:20.884Z,7.90
2023-01-19T13:28:52.341Z,7.10
2023-01-19T13:31:19.897Z,8.80
2023-01-19T13:33:50.969Z,11.30
2023-01-19T13:36:38.420Z,10.30
2023-01-19T13:39:12.329Z,12.27
2023-01-19T13:41:41.224Z,6.63
2023-01-19T13:44:15.465Z,12.23
2023-01-19T13:46:42.933Z,8.30
2023-01-19T13:49:19.137Z,8.75
2023-01-19T13:51:45.730Z,8.43
2023-01-19T13:54:17.762Z,8.52
2023-01-19T13:56:50.360Z,7.32
2023-01-19T13:59:16.976Z,7.47
2023-01-19T14:01:46.033Z,11.77
2023-01-19T14:04:32.449Z,8.60
2023-01-19T14:07:02.913Z,6.53
2023-01-19T14:09:29.568Z,10.40
2023-01-19T14:12:11.084Z,8.23
2023-01-19T14:14:38.580Z,7.28
2023-01-19T14:17:18.192Z,7.97
2023-01-19T14:19:53.228Z,14.18
2023-01-19T14:22:19.970Z,11.50
2023-01-19T14:24:46.887Z,8.73
2023-01-19T14:27:22.697Z,12.93
2023-01-19T14:29:53.567Z,9.18
2023-01-19T14:32:25.448Z,13.02
2023-01-19T14:35:13.185Z,8.45
2023-01-19T14:37:50.915Z,7.40
2023-01-19T14:40:20.433Z,8.70
2023-01-19T14:43:03.169Z,10.05
2023-01-19T14:45:36.983Z,9.48
2023-01-19T14:48:07.021Z,8.52
2023-01-19T14:50:42.838Z,10.23
2023-01-19T14:53:25.733Z,12.88
2023-01-19T14:56:02.403Z,7.27
2023-01-19T14:58:31.410Z,8.65
2023-01-19T15:00:58.519Z,9.63
2023-01-19T15:03:38.569Z,8.18
2023-01-19T15:06:16.181Z,12.13
2023-01-19T15:08:45.010Z,14.05
2023-01-19T15:11:26.727Z,7.05
2023-01-19T15:13:55.226Z,14.27
2023-01-19T15:16:23.255Z,10.13
2023-01-19T15:18:49.838Z,6.82
2023-01-19T15:21:23.279Z,14.57
2023-01-19T15:23:50.382Z,9.48
2023-01-19T15:26:23.132Z,9.70
2023-01-19T15:28:50.625Z,8.70
2023-01-19T15:31:19.812Z,8.60
2023-01-19T15:33:46.956Z,10.13
2023-01-19T15:36:17.841Z,15.35
2023-01-19T15:38:44.797Z,11.80
2023-01-19T15:41:14.004Z,18.23
2023-01-19T15:43:40.691Z,11.35
2023-01-19T15:46:07.873Z,12.70
2023-01-19T15:48:34.692Z,9.52
2023-01-19T15:51:01.271Z,12.77
2023-01-19T15:53:27.876Z,9.48
2023-01-19T15:55:56.895Z,13.43
2023-01-19T15:58:24.333Z,7.97
2023-01-19T16:00:55.836Z,14.65
2023-01-19T16:03:24.635Z,9.57
2023-01-19T16:05:51.575Z,10.15
2023-01-19T16:08:18.352Z,14.88
2023-01-19T16:10:44.959Z,10.82
2023-01-19T16:13:11.922Z,9.88
2023-01-19T16:15:40.082Z,11.18
2023-01-19T16:18:06.717Z,7.32
2023-01-19T16:20:33.332Z,8.30
2023-01-19T16:23:13.819Z,9.65
2023-01-19T16:25:41.348Z,15.80
2023-01-19T16:28:08.425Z,12.05
2023-01-19T16:30:35.298Z,8.65
2023-01-19T16:33:01.977Z,13.32
2023-01-19T16:35:28.624Z,8.95
2023-01-19T16:37:55.208Z,10.13
2023-01-19T16:40:21.936Z,9.80
2023-01-19T16:42:48.580Z,9.57
2023-01-19T16:45:15.211Z,11.43
2023-01-19T16:47:41.873Z,12.85
2023-01-19T16:50:11.903Z,10.77
2023-01-19T16:52:38.819Z,13.30
2023-01-19T16:55:09.417Z,10.40
2023-01-19T16:57:38.886Z,13.93
2023-01-19T17:00:09.381Z,13.65
2023-01-19T17:02:36.404Z,12.27
2023-01-19T17:05:03.025Z,13.43
2023-01-19T17:07:29.626Z,12.55
2023-01-19T17:09:56.261Z,11.45
2023-01-19T17:12:22.890Z,14.85
2023-01-19T17:14:49.505Z,12.93
2023-01-19T17:17:16.061Z,11.93
2023-01-19T17:19:42.843Z,12.32
2023-01-19T17:22:09.382Z,11.63
2023-01-19T17:24:35.959Z,15.93
2023-01-19T17:27:02.539Z,11.70
2023-01-19T17:29:29.173Z,8.77
2023-01-19T17:31:55.722Z,12.68
2023-01-19T17:34:22.309Z,15.70
2023-01-19T17:36:51.233Z,12.85
2023-01-19T17:39:18.626Z,9.13
2023-01-19T17:41:45.286Z,15.45
2023-01-19T17:44:12.059Z,17.77
2023-01-19T17:46:38.868Z,10.65
2023-01-19T17:49:07.395Z,13.73
2023-01-19T17:51:34.696Z,9.55
2023-01-19T17:54:01.341Z,12.43
2023-01-19T17:56:30.437Z,18.98
2023-01-19T17:58:58.057Z,14.85
2023-01-19T18:01:27.326Z,13.45
2023-01-19T18:03:54.264Z,13.15
2023-01-19T18:06:21.683Z,11.25
2023-01-19T18:08:49.537Z,10.35
2023-01-19T18:11:17.958Z,11.20
2023-01-19T18:13:45.842Z,14.63
2023-01-19T18:16:34.503Z,10.02
2023-01-19T18:19:01.197Z,14.27
2023-01-19T18:21:28.872Z,15.43
2023-01-19T18:24:01.803Z,10.65
2023-01-19T18:26:28.774Z,15.07
2023-01-19T18:28:56.821Z,22.50
2023-01-19T18:31:24.680Z,12.45
2023-01-19T18:33:51.260Z,15.95
2023-01-19T18:36:18.211Z,13.23
2023-01-19T18:38:45.464Z,20.70
2023-01-19T18:41:15.008Z,18.05
2023-01-19T18:43:41.964Z,17.67
2023-01-19T18:46:09.605Z,18.52
2023-01-19T18:48:37.720Z,18.23
2023-01-19T18:51:09.520Z,19.45
2023-01-19T18:53:36.393Z,22.80
2023-01-19T18:56:03.627Z,20.15
2023-01-19T18:58:31.791Z,22.02
2023-01-19T19:01:00.123Z,19.15
2023-01-19T19:03:27.164Z,18.42
2023-01-19T19:05:53.827Z,19.13
2023-01-19T19:08:20.470Z,20.55
2023-01-19T19:10:47.109Z,18.77
2023-01-19T19:13:17.726Z,18.83
2023-01-19T19:15:44.513Z,20.35
2023-01-19T19:18:14.196Z,17.67
2023-01-19T19:20:44.425Z,14.27
2023-01-19T19:23:11.940Z,19.20
2023-01-19T19:25:38.795Z,17.42
2023-01-19T19:28:05.805Z,18.17
2023-01-19T19:30:34.624Z,15.75
2023-01-19T19:33:01.340Z,14.82
2023-01-19T19:35:27.965Z,18.80
2023-01-19T19:37:57.565Z,18.17
2023-01-19T19:40:28.495Z,13.00
2023-01-19T19:42:57.591Z,18.90
2023-01-19T19:45:25.311Z,15.57
2023-01-19T19:47:51.874Z,14.52
2023-01-19T19:50:18.636Z,14.50
2023-01-19T19:52:45.325Z,19.00
2023-01-19T19:55:12.715Z,17.60
2023-01-19T19:57:39.469Z,21.42
2023-01-19T20:00:06.756Z,26.33
2023-01-19T20:02:33.350Z,28.27
2023-01-19T20:05:00.165Z,30.75
2023-01-19T20:07:26.769Z,27.67
2023-01-19T20:09:55.092Z,23.08
2023-01-19T20:12:22.196Z,28.40
2023-01-19T20:14:48.877Z,20.38
2023-01-19T20:17:15.644Z,20.27
2023-01-19T20:19:43.852Z,20.00
2023-01-19T20:22:10.395Z,20.85
2023-01-19T20:24:37.053Z,23.40
2023-01-19T20:27:03.925Z,22.48
2023-01-19T20:29:30.685Z,19.58
2023-01-19T20:31:57.244Z,19.05
2023-01-19T20:34:29.102Z,16.52
2023-01-19T20:36:56.578Z,18.05
2023-01-19T20:39:24.551Z,15.82
2023-01-19T20:41:52.696Z,22.73
2023-01-19T20:44:22.365Z,20.13
2023-01-19T20:46:49.851Z,22.85
2023-01-19T20:49:16.737Z,20.50
2023-01-19T20:51:45.277Z,18.40
2023-01-19T20:54:13.467Z,19.02
2023-01-19T20:56:41.767Z,18.42
2023-01-19T20:59:10.323Z,17.63
2023-01-19T21:01:37.298Z,18.83
2023-01-19T21:04:04.132Z,17.30
2023-01-19T21:06:30.718Z,15.77
2023-01-19T21:08:57.683Z,14.60
2023-01-19T21:11:25.047Z,14.02
2023-01-19T21:13:55.691Z,17.92
2023-01-19T21:16:24.397Z,15.93
2023-01-19T21:18:51.304Z,15.82
2023-01-19T21:21:29.816Z,16.65
2023-01-19T21:23:58.237Z,20.05
2023-01-19T21:26:24.866Z,15.93
2023-01-19T21:28:51.580Z,16.95
2023-01-19T21:31:18.421Z,20.42
2023-01-19T21:33:45.178Z,17.80
2023-01-19T21:36:11.864Z,16.23
2023-01-19T21:38:39.027Z,18.33
2023-01-19T21:41:12.003Z,17.02
2023-01-19T21:43:41.784Z,16.00
2023-01-19T21:46:14.379Z,18.70
2023-01-19T21:48:42.192Z,23.25
2023-01-19T21:51:09.115Z,19.33
2023-01-19T21:53:35.733Z,19.55
2023-01-19T21:56:02.368Z,17.08
2023-01-19T21:58:28.964Z,19.98
2023-01-19T22:01:00.616Z,21.85
2023-01-19T22:03:28.496Z,23.50
2023-01-19T22:05:58.447Z,18.75
2023-01-19T22:08:25.136Z,19.67
2023-01-19T22:10:51.747Z,20.58
2023-01-19T22:13:18.461Z,22.50
2023-01-19T22:15:45.031Z,24.50
2023-01-19T22:18:11.663Z,23.65
2023-01-19T22:20:38.328Z,32.47
2023-01-19T22:23:04.946Z,28.92
2023-01-19T22:25:33.076Z,26.20
2023-01-19T22:27:59.729Z,23.52
2023-01-19T22:30:26.593Z,21.50
2023-01-19T22:32:53.482Z,26.05
2023-01-19T22:35:21.267Z,27.50
2023-01-19T22:37:47.967Z,21.92
2023-01-19T22:40:14.599Z,25.55
2023-01-19T22:42:45.284Z,23.75
2023-01-19T22:45:12.107Z,24.60
2023-01-19T22:47:38.909Z,24.80
2023-01-19T22:50:06.010Z,20.17
2023-01-19T22:52:32.614Z,21.58
2023-01-19T22:55:00.032Z,21.00
2023-01-19T22:57:26.583Z,18.20
2023-01-19T22:59:53.165Z,20.08
2023-01-19T23:02:20.895Z,17.38
2023-01-19T23:04:47.732Z,21.27
2023-01-19T23:07:14.435Z,18.23
2023-01-19T23:09:41.064Z,23.98
2023-01-19T23:12:07.708Z,21.98
2023-01-19T23:14:34.716Z,17.05
2023-01-19T23:17:01.306Z,21.75
2023-01-19T23:19:27.846Z,17.05
2023-01-19T23:21:54.418Z,17.48
2023-01-19T23:24:21.057Z,15.05
2023-01-19T23:26:49.591Z,17.67
2023-01-19T23:29:16.225Z,18.38
2023-01-19T23:31:46.442Z,16.80
2023-01-19T23:34:13.654Z,23.00
2023-01-19T23:36:41.837Z,22.98
2023-01-19T23:39:20.323Z,21.75
2023-01-19T23:41:47.579Z,21.33
2023-01-19T23:44:14.726Z,20.60
2023-01-19T23:46:41.273Z,23.30
2023-01-19T23:49:07.954Z,27.55
2023-01-19T23:51:34.914Z,24.75
2023-01-19T23:54:01.616Z,27.10
2023-01-19T23:56:31.808Z,21.83
2023-01-19T23:59:04.667Z,20.13
